Time;durP1;ratioP1;P1;durP2;ratioP2;P2;SDS_P1;SDS_P2;PMS_P1;PMS_P2;Temp;Humidity;BMP_temperature;BMP_pressure;BME280_temperature;BME280_humidity;BME280_pressure;Samples;Min_cycle;Max_cycle;Signal;HPM_P1;HPM_P2
2021/05/19 00:01:48;;;;;;;6.70;3.50;;;;;;;12.64;92.44;99404.38;1645343;85;20975;-82
2021/05/19 00:04:15;;;;;;;6.83;4.05;;;;;;;12.70;92.59;99393.03;1642197;85;21079;-81
2021/05/19 00:06:43;;;;;;;7.33;3.85;;;;;;;12.62;93.31;99400.59;1644127;85;21089;-81
2021/05/19 00:09:14;;;;;;;7.33;3.80;;;;;;;12.66;93.36;99405.00;1627933;85;21024;-83
2021/05/19 00:11:45;;;;;;;7.45;3.60;;;;;;;12.47;93.97;99407.25;1605643;86;21152;-82
2021/05/19 00:14:11;;;;;;;7.00;3.87;;;;;;;12.52;93.95;99402.23;1646631;85;21212;-81
2021/05/19 00:16:37;;;;;;;6.57;3.67;;;;;;;12.64;94.45;99394.59;1640337;85;21152;-80
2021/05/19 00:19:05;;;;;;;5.42;3.22;;;;;;;12.66;93.37;99394.41;1642630;85;21025;-80
2021/05/19 00:21:32;;;;;;;;;;;;;;;12.67;93.08;99393.41;1646484;85;21140;-79
2021/05/19 00:24:02;;;;;;;5.05;3.40;;;;;;;12.75;92.97;99397.25;1638439;85;20300;-80
2021/05/19 00:26:29;;;;;;;4.95;3.45;;;;;;;12.69;93.27;99396.68;1643789;85;21093;-80
2021/05/19 00:29:00;;;;;;;7.42;3.65;;;;;;;12.51;93.90;99393.95;1642351;85;21025;-81
2021/05/19 00:31:34;;;;;;;8.25;3.52;;;;;;;12.50;93.53;99401.58;1643531;85;21072;-79
2021/05/19 00:33:59;;;;;;;5.92;3.30;;;;;;;12.61;93.29;99399.45;1639805;85;21111;-81
2021/05/19 00:36:26;;;;;;;7.87;3.55;;;;;;;12.67;93.57;99388.92;1644902;85;21057;-79
2021/05/19 00:38:54;;;;;;;7.22;3.87;;;;;;;12.35;94.28;99379.61;1644452;85;21109;-85
2021/05/19 00:41:21;;;;;;;6.12;3.30;;;;;;;12.56;94.00;99392.08;1646359;85;21243;-82
2021/05/19 00:43:51;;;;;;;7.47;3.20;;;;;;;12.77;92.69;99395.25;1604623;85;21709;-82
2021/05/19 00:46:16;;;;;;;;;;;;;;;12.77;92.80;99395.25;1631671;86;20984;-82
2021/05/19 00:48:48;;;;;;;5.78;3.65;;;;;;;12.84;93.22;99400.09;1648692;85;20255;-80
2021/05/19 00:51:15;;;;;;;7.10;3.67;;;;;;;12.84;93.22;99400.09;1643269;85;21130;-81
2021/05/19 00:53:41;;;;;;;4.75;3.52;;;;;;;12.88;92.35;99400.04;1641632;85;21055;-81
2021/05/19 00:56:06;;;;;;;4.15;3.02;;;;;;;12.92;92.05;99402.61;1643157;85;20942;-80
2021/05/19 00:58:33;;;;;;;5.28;3.17;;;;;;;12.92;91.85;99405.25;1643705;85;20996;-81
2021/05/19 01:01:06;;;;;;;4.30;3.20;;;;;;;12.82;91.98;99413.20;1624732;85;21125;-83
2021/05/19 01:03:34;;;;;;;6.28;3.20;;;;;;;13.02;91.68;99403.62;1641982;86;21637;-82
2021/05/19 01:06:06;;;;;;;4.90;3.08;;;;;;;13.07;91.83;99409.69;1645416;85;21187;-81
2021/05/19 01:11:20;;;;;;;7.08;3.45;;;;;;;13.11;91.43;99406.47;1642913;85;21200;-81
2021/05/19 01:13:48;;;;;;;5.40;3.30;;;;;;;13.15;91.44;99406.89;1646297;85;21127;-82
2021/05/19 01:16:14;;;;;;;5.58;3.20;;;;;;;12.96;92.48;99402.22;1646396;85;21126;-81
2021/05/19 01:18:41;;;;;;;4.70;3.15;;;;;;;12.99;92.12;99409.80;1643365;85;21640;-80
2021/05/19 01:21:08;;;;;;;5.47;3.25;;;;;;;13.09;91.79;99407.66;1624135;86;21793;-81
2021/05/19 01:23:34;;;;;;;4.87;2.90;;;;;;;13.03;91.36;99413.20;1625185;86;21124;-82
2021/05/19 01:26:04;;;;;;;4.97;3.27;;;;;;;13.06;91.11;99410.69;1602944;86;21652;-84
2021/05/19 01:28:32;;;;;;;7.05;3.25;;;;;;;13.05;91.09;99412.53;1645235;85;21158;-83
2021/05/19 01:30:58;;;;;;;;;;;;;;;13.09;91.15;99407.14;1643424;86;21742;-83
2021/05/19 01:33:27;;;;;;;5.33;2.42;;;;;;;13.00;90.95;99416.75;1640171;85;20195;-81
2021/05/19 01:35:56;;;;;;;4.40;2.70;;;;;;;12.88;90.98;99427.86;1643505;85;21156;-83
2021/05/19 01:38:24;;;;;;;6.17;3.20;;;;;;;12.93;90.87;99413.53;1640668;85;21115;-80
2021/05/19 01:40:54;;;;;;;5.65;3.05;;;;;;;12.80;91.96;99417.37;1642860;85;21606;-81
2021/05/19 01:43:31;;;;;;;5.50;3.10;;;;;;;12.83;91.56;99413.02;1643439;85;21063;-81
2021/05/19 01:46:01;;;;;;;5.35;3.25;;;;;;;12.79;92.14;99410.45;1642768;85;21095;-83
2021/05/19 01:48:31;;;;;;;5.30;3.30;;;;;;;12.96;91.76;99410.17;1642263;85;21072;-80
2021/05/19 01:51:02;;;;;;;4.80;3.25;;;;;;;12.97;91.56;99409.17;1638401;85;21631;-83
2021/05/19 01:53:32;;;;;;;8.78;3.62;;;;;;;12.86;91.76;99420.59;1643625;85;21160;-81
2021/05/19 01:56:02;;;;;;;5.15;3.40;;;;;;;12.81;91.75;99408.42;1644430;85;21104;-81
2021/05/19 01:58:31;;;;;;;5.53;3.40;;;;;;;12.86;91.77;99413.16;1622565;85;21386;-81
2021/05/19 02:01:00;;;;;;;4.92;3.25;;;;;;;12.80;92.10;99418.69;1646076;85;21069;-81
2021/05/19 02:03:28;;;;;;;4.08;2.90;;;;;;;12.88;91.37;99404.02;1639622;85;21035;-81
2021/05/19 02:05:57;;;;;;;5.47;2.77;;;;;;;12.83;91.53;99414.86;1640277;85;21118;-83
2021/05/19 02:08:22;;;;;;;4.50;2.75;;;;;;;12.84;91.01;99418.64;1645572;85;21152;-85
2021/05/19 02:10:55;;;;;;;4.30;2.58;;;;;;;12.88;90.53;99415.94;1642397;85;20928;-82
2021/05/19 02:13:23;;;;;;;4.72;2.58;;;;;;;13.02;90.02;99421.34;1646501;85;21004;-82
2021/05/19 02:15:50;;;;;;;4.78;2.40;;;;;;;12.91;89.86;99427.48;1641853;85;22040;-83
2021/05/19 02:18:18;;;;;;;5.53;2.33;;;;;;;12.95;89.72;99427.11;1648084;85;21296;-82
2021/05/19 02:20:45;;;;;;;3.42;2.42;;;;;;;13.02;89.12;99430.63;1642654;86;21670;-82
2021/05/19 02:23:14;;;;;;;4.33;2.50;;;;;;;13.04;89.03;99427.30;1644904;85;21095;-82
2021/05/19 02:25:41;;;;;;;3.45;2.30;;;;;;;13.02;89.02;99427.97;1625611;86;21090;-81
2021/05/19 02:28:09;;;;;;;4.78;2.37;;;;;;;12.95;89.19;99432.41;1642425;85;21648;-80
2021/05/19 02:30:42;;;;;;;5.33;2.30;;;;;;;12.99;89.03;99431.00;1642253;85;20997;-81
2021/05/19 02:33:13;;;;;;;3.75;2.25;;;;;;;13.08;88.66;99437.81;1641396;85;21121;-80
2021/05/19 02:35:40;;;;;;;3.00;2.10;;;;;;;13.21;88.34;99445.90;1626954;86;21079;-81
2021/05/19 02:38:09;;;;;;;3.42;2.10;;;;;;;13.14;88.22;99439.70;1613912;87;21259;-80
2021/05/19 02:40:35;;;;;;;5.45;2.10;;;;;;;13.11;88.35;99449.36;1588265;89;21070;-81
2021/05/19 02:43:06;;;;;;;3.00;2.10;;;;;;;13.01;88.30;99448.88;1604065;87;21116;-81
2021/05/19 02:45:33;;;;;;;3.30;1.90;;;;;;;12.90;88.19;99448.36;1601927;87;21421;-81
2021/05/19 02:48:03;;;;;;;;;;;;;;;12.80;88.47;99447.84;1606201;87;21132;-82
2021/05/19 02:50:32;;;;;;;2.72;1.87;;;;;;;13.06;88.21;99441.17;1603491;87;20256;-82
2021/05/19 02:52:58;;;;;;;3.00;1.87;;;;;;;13.08;87.87;99445.77;1603177;87;21054;-83
2021/05/19 02:55:27;;;;;;;4.67;2.35;;;;;;;13.10;88.05;99448.55;1604200;87;21154;-83
2021/05/19 02:57:57;;;;;;;4.03;2.10;;;;;;;13.15;88.37;99444.01;1604600;86;21068;-82
2021/05/19 03:00:24;;;;;;;3.10;1.95;;;;;;;13.11;88.09;99446.23;1603997;87;21123;-84
2021/05/19 03:02:50;;;;;;;2.52;1.67;;;;;;;13.13;87.92;99448.69;1604505;87;21158;-82
2021/05/19 03:05:17;;;;;;;4.17;2.05;;;;;;;13.03;87.71;99456.12;1608240;87;21074;-82
2021/05/19 03:07:49;;;;;;;4.12;1.90;;;;;;;13.19;87.55;99447.93;1603588;89;21151;-83
2021/05/19 03:10:19;;;;;;;5.10;2.17;;;;;;;13.08;87.11;99451.06;1601488;87;21096;-83
2021/05/19 03:12:46;;;;;;;2.70;1.72;;;;;;;13.12;87.34;99456.31;1604308;87;21038;-83
2021/05/19 03:15:18;;;;;;;3.37;1.82;;;;;;;12.96;87.16;99450.77;1603871;87;21118;-82
2021/05/19 03:17:49;;;;;;;4.47;2.00;;;;;;;13.06;87.37;99458.40;1608707;87;21165;-85
2021/05/19 03:20:17;;;;;;;4.05;2.02;;;;;;;13.07;86.69;99447.61;1603868;87;21131;-82
2021/05/19 03:22:43;;;;;;;4.87;2.10;;;;;;;13.18;86.63;99463.52;1605344;87;21122;-83
2021/05/19 03:25:11;;;;;;;7.25;2.40;;;;;;;13.06;87.00;99455.75;1603960;87;21062;-84
2021/05/19 03:27:38;;;;;;;4.12;2.30;;;;;;;13.09;87.07;99465.97;1586548;89;21110;-83
2021/05/19 03:30:07;;;;;;;6.10;2.50;;;;;;;13.07;87.19;99459.53;1584340;87;21138;-85
2021/05/19 03:32:35;;;;;;;5.65;2.37;;;;;;;12.93;87.37;99463.88;1574255;89;21154;-83
2021/05/19 03:35:03;;;;;;;;;;;;;;;13.08;86.89;99453.72;1587832;87;21109;-83
2021/05/19 03:37:31;;;;;;;7.85;2.85;;;;;;;13.15;86.48;99467.05;1603384;87;21032;-83
2021/05/19 03:39:59;;;;;;;5.05;2.60;;;;;;;13.16;86.67;99464.22;1601676;87;21149;-83
2021/05/19 03:42:26;;;;;;;;;;;;;;;13.02;86.99;99469.05;1604257;87;21145;-83
2021/05/19 03:44:54;;;;;;;6.45;3.00;;;;;;;13.08;87.04;99474.92;1601965;87;21692;-81
2021/05/19 03:47:20;;;;;;;;;;;;;;;13.13;87.25;99461.94;1607538;87;21068;-85
2021/05/19 03:49:48;;;;;;;4.70;2.60;;;;;;;13.12;87.18;99468.25;1603027;87;25472;-81
2021/05/19 03:52:13;;;;;;;;;;;;;;;12.95;87.20;99470.83;1608096;87;22310;-86
2021/05/19 03:54:41;;;;;;;5.55;2.83;;;;;;;13.05;87.11;99468.67;1580671;87;20212;-79
2021/05/19 03:57:09;;;;;;;7.92;3.15;;;;;;;12.78;88.49;99467.08;1584223;87;21161;-80
2021/05/19 03:59:37;;;;;;;5.42;2.95;;;;;;;13.03;87.26;99462.23;1601226;87;21677;-80
2021/05/19 04:02:06;;;;;;;5.47;2.90;;;;;;;12.99;87.73;99466.78;1607030;87;21038;-80
2021/05/19 04:04:35;;;;;;;5.75;3.37;;;;;;;13.05;87.34;99470.00;1608270;87;21098;-81
2021/05/19 04:07:05;;;;;;;4.90;3.20;;;;;;;13.03;87.30;99477.33;1610458;87;21169;-83
2021/05/19 04:09:30;;;;;;;5.28;3.27;;;;;;;13.14;87.13;99471.52;1582566;87;21190;-81
2021/05/19 04:12:05;;;;;;;5.53;3.33;;;;;;;13.12;86.97;99474.87;1584451;88;20944;-80
2021/05/19 04:14:30;;;;;;;6.00;3.25;;;;;;;13.20;87.59;99484.02;1602865;87;21174;-81
2021/05/19 04:17:01;;;;;;;5.47;3.15;;;;;;;13.18;86.42;99475.44;1606078;87;21016;-80
2021/05/19 04:19:28;;;;;;;5.83;3.35;;;;;;;13.08;86.78;99478.90;1601913;87;21588;-81
2021/05/19 04:21:55;;;;;;;5.55;3.00;;;;;;;13.14;86.85;99480.80;1609489;86;21133;-82
2021/05/19 04:24:23;;;;;;;5.47;2.92;;;;;;;13.16;86.94;99481.45;1601351;87;21093;-81
2021/05/19 04:26:50;;;;;;;9.13;3.40;;;;;;;13.42;86.76;99481.38;1603493;87;21039;-82
2021/05/19 04:29:17;;;;;;;6.75;3.27;;;;;;;13.51;86.28;99490.84;1600681;87;21637;-83
2021/05/19 04:31:44;;;;;;;6.55;3.30;;;;;;;13.25;85.95;99488.75;1604390;87;21189;-81
2021/05/19 04:34:11;;;;;;;5.67;3.10;;;;;;;13.19;85.96;99498.30;1582328;87;21435;-81
2021/05/19 04:36:39;;;;;;;;;;;;;;;13.12;86.24;99490.78;1606322;87;21051;-80
2021/05/19 04:39:09;;;;;;;4.90;2.95;;;;;;;13.20;86.22;99499.11;1610186;87;20264;-81
2021/05/19 04:41:36;;;;;;;6.55;3.40;;;;;;;13.22;86.02;99501.90;1584159;88;21130;-81
2021/05/19 04:44:10;;;;;;;;;;;;;;;13.18;86.14;99503.80;1615172;87;21115;-80
2021/05/19 04:46:38;;;;;;;6.62;3.30;;;;;;;13.15;86.33;99506.30;1621628;87;20602;-80
2021/05/19 04:49:09;;;;;;;6.37;3.42;;;;;;;13.08;86.12;99506.25;1622207;87;21144;-86
2021/05/19 04:51:38;;;;;;;5.42;3.17;;;;;;;13.23;85.68;99509.34;1619360;87;21625;-81
2021/05/19 04:54:07;;;;;;;6.15;3.33;;;;;;;13.20;85.85;99507.06;1620107;87;21237;-85
2021/05/19 04:56:38;;;;;;;6.50;3.30;;;;;;;13.23;86.25;99514.64;1612314;87;21135;-82
2021/05/19 04:59:12;;;;;;;4.60;3.15;;;;;;;13.25;86.11;99517.91;1610092;88;21220;-85
2021/05/19 05:01:39;;;;;;;7.83;3.47;;;;;;;13.34;86.28;99517.33;1612659;87;21162;-83
2021/05/19 05:04:09;;;;;;;6.53;3.47;;;;;;;13.38;86.71;99517.27;1610927;87;21092;-87
2021/05/19 05:06:39;;;;;;;5.33;3.40;;;;;;;13.31;86.09;99524.30;1612906;87;22353;-81
2021/05/19 05:09:09;;;;;;;7.97;3.65;;;;;;;13.35;86.14;99525.61;1612433;88;21297;-83
2021/05/19 05:11:38;;;;;;;8.15;4.00;;;;;;;13.37;86.25;99529.69;1611683;88;21158;-83
2021/05/19 05:14:10;;;;;;;6.50;3.37;;;;;;;13.38;86.22;99534.00;1613228;86;21187;-82
2021/05/19 05:16:39;;;;;;;5.75;3.60;;;;;;;13.20;86.33;99531.73;1614099;85;21033;-82
2021/05/19 05:19:06;;;;;;;;;;;;;;;13.43;85.81;99528.94;1618571;87;21366;-81
2021/05/19 05:21:37;;;;;;;5.15;3.60;;;;;;;13.24;86.17;99530.36;1621533;87;25233;-81
2021/05/19 05:24:04;;;;;;;7.72;3.83;;;;;;;13.27;86.39;99539.27;1622244;87;21289;-80
2021/05/19 05:26:33;;;;;;;5.70;3.40;;;;;;;13.33;85.97;99539.52;1613068;88;21641;-86
2021/05/19 05:29:02;;;;;;;7.03;3.55;;;;;;;13.25;86.33;99547.92;1615774;85;21137;-86
2021/05/19 05:31:28;;;;;;;6.00;3.33;;;;;;;13.48;85.70;99546.94;1590289;87;21138;-87
2021/05/19 05:33:54;;;;;;;7.00;3.58;;;;;;;13.47;85.87;99545.31;1612974;87;20937;-85
2021/05/19 05:36:19;;;;;;;6.28;3.50;;;;;;;13.50;85.53;99544.93;1612999;88;21247;-84
2021/05/19 05:38:47;;;;;;;7.37;3.95;;;;;;;13.49;85.55;99549.91;1614532;85;21121;-88
2021/05/19 05:41:13;;;;;;;8.73;4.37;;;;;;;13.42;86.66;99547.69;1610998;87;21058;-84
2021/05/19 05:43:39;;;;;;;5.87;3.87;;;;;;;13.49;86.66;99551.75;1607115;87;21160;-87
2021/05/19 05:46:11;;;;;;;6.47;3.98;;;;;;;13.36;86.52;99554.59;1601843;87;20968;-86
2021/05/19 05:48:36;;;;;;;6.15;4.20;;;;;;;13.28;86.48;99562.13;1585761;87;21703;-86
2021/05/19 05:51:06;;;;;;;6.37;4.33;;;;;;;13.24;87.12;99562.18;1607642;87;21090;-86
2021/05/19 05:53:40;;;;;;;9.30;4.30;;;;;;;13.22;87.90;99562.88;1585948;88;21046;-86
2021/05/19 05:56:08;;;;;;;6.75;4.28;;;;;;;13.06;87.26;99571.05;1586456;88;21745;-90
2021/05/19 05:58:36;;;;;;;8.05;4.33;;;;;;;12.97;87.55;99578.80;1608420;87;21090;-87
2021/05/19 06:01:03;;;;;;;6.83;4.40;;;;;;;12.83;88.38;99583.92;1600840;87;21165;-88
2021/05/19 06:03:30;;;;;;;7.12;4.60;;;;;;;13.16;88.55;99574.23;1612488;87;21149;-88
2021/05/19 06:05:56;;;;;;;10.45;4.80;;;;;;;13.25;87.53;99576.25;1603470;88;21122;-89
2021/05/19 06:08:27;;;;;;;8.75;4.70;;;;;;;13.22;88.71;99580.12;1606763;87;21169;-87
2021/05/19 06:10:58;;;;;;;9.30;4.72;;;;;;;13.22;87.99;99584.09;1607642;87;21125;-86
2021/05/19 06:13:28;;;;;;;7.65;4.37;;;;;;;13.21;87.20;99589.07;1606446;87;21035;-85
2021/05/19 06:15:53;;;;;;;7.33;4.40;;;;;;;13.10;87.87;99584.27;1602867;87;21113;-85
2021/05/19 06:18:21;;;;;;;7.25;4.72;;;;;;;13.41;87.40;99580.55;1564640;88;20927;-88
2021/05/19 06:20:52;;;;;;;;;;;;;;;13.55;87.17;99586.29;1615022;87;21143;-93
2021/05/19 06:23:21;;;;;;;7.67;4.58;;;;;;;13.43;86.04;99579.84;1610326;87;20217;-87
2021/05/19 06:25:47;;;;;;;10.82;4.97;;;;;;;13.36;85.69;99582.92;1583190;88;21537;-85
2021/05/19 06:28:14;;;;;;;11.48;5.30;;;;;;;13.50;85.60;99579.41;1606323;87;22479;-87
2021/05/19 06:30:40;;;;;;;8.00;5.10;;;;;;;13.43;85.75;99584.63;1603018;87;21613;-86
2021/05/19 06:33:10;;;;;;;9.05;5.80;;;;;;;13.33;86.24;99585.47;1610844;87;21141;-87
2021/05/19 06:35:36;;;;;;;10.75;6.10;;;;;;;13.47;86.15;99577.14;1605263;87;21106;-86
2021/05/19 06:38:02;;;;;;;9.43;6.00;;;;;;;13.38;87.64;99580.92;1605085;87;22027;-89
2021/05/19 06:40:29;;;;;;;9.73;5.95;;;;;;;13.52;86.97;99592.48;1606878;87;21142;-85
2021/05/19 06:43:04;;;;;;;9.75;6.08;;;;;;;13.48;86.82;99590.70;1600857;87;23719;-87
2021/05/19 06:45:31;;;;;;;10.72;5.95;;;;;;;13.70;86.76;99584.06;1600746;87;21035;-84
2021/05/19 06:48:04;;;;;;;9.20;6.70;;;;;;;13.78;87.08;99587.42;1586141;87;21145;-86
2021/05/19 06:50:29;;;;;;;10.63;7.12;;;;;;;13.76;86.18;99585.95;1607117;87;21138;-88
2021/05/19 06:52:56;;;;;;;10.10;6.85;;;;;;;13.81;85.90;99584.88;1608316;87;21043;-87
2021/05/19 06:55:23;;;;;;;9.95;6.62;;;;;;;13.99;86.86;99589.21;1609882;88;21218;-85
2021/05/19 06:57:57;;;;;;;12.53;7.42;;;;;;;14.00;85.64;99595.36;1590070;87;21128;-91
2021/05/19 07:00:24;;;;;;;15.78;7.20;;;;;;;14.08;85.44;99590.42;1605663;87;22411;-87
2021/05/19 07:02:54;;;;;;;16.40;8.28;;;;;;;14.07;84.91;99590.09;1607259;87;21134;-86
2021/05/19 07:05:22;;;;;;;15.00;8.70;;;;;;;13.85;86.48;99586.14;1606800;87;21038;-84
2021/05/19 07:07:47;;;;;;;;;;;;;;;13.98;86.93;99592.89;1601051;88;21729;-86
2021/05/19 07:10:19;;;;;;;15.20;7.50;;;;;;;14.12;86.31;99592.49;1605771;87;20157;-87
2021/05/19 07:12:50;;;;;;;13.32;8.38;;;;;;;14.21;85.78;99589.17;1608739;87;22010;-87
2021/05/19 07:15:21;;;;;;;11.60;8.33;;;;;;;14.20;85.67;99590.20;1609789;87;21169;-84
2021/05/19 07:17:51;;;;;;;12.60;8.03;;;;;;;14.20;85.52;99587.55;1613562;87;21072;-85
2021/05/19 07:20:19;;;;;;;14.23;8.58;;;;;;;13.87;85.77;99596.05;1587161;88;21089;-86
2021/05/19 07:22:45;;;;;;;15.72;8.08;;;;;;;14.12;85.30;99589.84;1600177;87;21114;-86
2021/05/19 07:25:13;;;;;;;13.35;8.90;;;;;;;14.11;85.71;99594.02;1607428;87;20982;-85
2021/05/19 07:27:41;;;;;;;14.20;9.00;;;;;;;14.16;86.17;99591.59;1610782;87;21149;-86
2021/05/19 07:30:09;;;;;;;12.03;8.20;;;;;;;14.19;86.14;99599.98;1607427;88;21069;-87
2021/05/19 07:32:39;;;;;;;11.18;8.25;;;;;;;14.12;85.29;99587.67;1607102;87;21118;-86
2021/05/19 07:35:09;;;;;;;14.58;8.43;;;;;;;13.99;85.17;99591.86;1608091;87;21738;-86
2021/05/19 07:37:37;;;;;;;14.20;8.50;;;;;;;14.19;84.48;99583.24;1585113;87;21161;-86
2021/05/19 07:40:05;;;;;;;;;;;;;;;14.00;84.42;99585.55;1603083;87;21415;-87
2021/05/19 07:42:33;;;;;;;11.93;8.08;;;;;;;14.10;84.69;99589.19;1599740;87;20195;-87
2021/05/19 07:45:05;;;;;;;18.87;9.63;;;;;;;13.97;85.04;99585.94;1601505;87;21196;-85
2021/05/19 07:47:31;;;;;;;14.75;8.83;;;;;;;14.06;86.17;99588.44;1598925;88;21098;-85
2021/05/19 07:50:01;;;;;;;14.00;7.65;;;;;;;14.09;85.50;99585.41;1608463;88;20929;-84
2021/05/19 07:52:30;;;;;;;12.65;8.20;;;;;;;14.03;85.36;99594.13;1597295;88;21123;-84
2021/05/19 07:54:59;;;;;;;16.12;8.63;;;;;;;14.13;85.44;99587.99;1600144;88;21050;-84
2021/05/19 07:57:38;;;;;;;17.25;9.38;;;;;;;14.18;85.12;99592.21;1574449;88;21072;-86
2021/05/19 08:00:09;;;;;;;;;;;;;;;14.16;85.50;99595.58;1595867;88;21158;-85
2021/05/19 08:02:26;;;;;;;12.55;8.50;;;;;;;14.11;86.07;99597.48;1599983;87;20299;-88
2021/05/19 08:04:55;;;;;;;14.55;8.50;;;;;;;14.38;85.10;99600.31;1575354;87;22317;-86
2021/05/19 08:07:21;;;;;;;14.65;9.05;;;;;;;14.53;83.75;99601.55;1602289;87;21297;-83
2021/05/19 08:09:52;;;;;;;14.93;9.40;;;;;;;14.57;83.15;99598.78;1593642;88;20945;-87
2021/05/19 08:12:20;;;;;;;15.75;9.45;;;;;;;14.34;82.90;99602.55;1599724;88;21841;-83
2021/05/19 08:14:48;;;;;;;16.60;8.90;;;;;;;14.26;83.60;99608.02;1568048;90;21199;-82
2021/05/19 08:17:18;;;;;;;15.85;9.65;;;;;;;14.44;83.23;99602.19;1599443;87;21046;-84
2021/05/19 08:19:44;;;;;;;16.48;9.45;;;;;;;14.28;83.36;99608.64;1592758;89;21119;-84
2021/05/19 08:22:14;;;;;;;14.47;9.63;;;;;;;14.38;83.50;99602.97;1634240;86;20995;-85
2021/05/19 08:24:42;;;;;;;12.23;9.23;;;;;;;14.61;82.75;99602.73;1632659;86;21108;-84
2021/05/19 08:27:08;;;;;;;18.60;9.30;;;;;;;14.60;83.19;99609.05;1628128;85;21135;-83
2021/05/19 08:29:34;;;;;;;16.15;9.50;;;;;;;14.54;82.24;99612.46;1607978;87;21099;-83
2021/05/19 08:32:00;;;;;;;14.30;9.05;;;;;;;14.49;82.94;99610.39;1627105;87;21205;-82
2021/05/19 08:34:26;;;;;;;15.20;9.40;;;;;;;14.54;81.83;99613.80;1625885;87;21038;-82
2021/05/19 08:36:54;;;;;;;14.53;9.03;;;;;;;14.61;81.62;99615.21;1623081;86;20945;-84
2021/05/19 08:39:20;;;;;;;15.70;9.55;;;;;;;14.62;82.35;99621.66;1626792;85;21144;-85
2021/05/19 08:41:49;;;;;;;14.35;9.55;;;;;;;14.56;82.24;99613.11;1628174;86;21104;-84
2021/05/19 08:44:16;;;;;;;15.88;9.45;;;;;;;14.70;82.38;99616.70;1623830;86;21478;-87
2021/05/19 08:46:47;;;;;;;13.80;8.55;;;;;;;14.63;81.74;99620.63;1623558;85;21177;-85
2021/05/19 08:49:15;;;;;;;15.45;9.18;;;;;;;14.70;82.26;99624.67;1651688;85;21238;-80
2021/05/19 08:51:42;;;;;;;17.17;9.53;;;;;;;14.50;81.15;99617.36;1657030;83;21096;-83
2021/05/19 08:54:10;;;;;;;16.73;9.95;;;;;;;14.76;81.40;99621.72;1652792;85;21101;-82
2021/05/19 08:56:44;;;;;;;15.50;9.38;;;;;;;14.97;81.56;99614.16;1655985;84;21633;-84
2021/05/19 08:59:13;;;;;;;13.98;9.13;;;;;;;15.19;80.37;99617.51;1656386;85;21727;-85
2021/05/19 09:01:44;;;;;;;12.75;8.13;;;;;;;15.31;80.56;99617.77;1654521;85;21216;-82
2021/05/19 09:04:23;;;;;;;14.80;7.92;;;;;;;15.22;79.71;99611.80;1613795;87;21317;-83
2021/05/19 09:06:58;;;;;;;16.85;7.53;;;;;;;14.95;78.38;99635.63;1651411;85;21130;-85
2021/05/19 09:09:35;;;;;;;15.10;8.40;;;;;;;15.28;78.14;99625.63;1597467;86;39299;-85
2021/05/19 09:12:18;;;;;;;15.95;8.83;;;;;;;15.29;77.80;99620.63;1652545;85;21017;-87
2021/05/19 09:15:04;;;;;;;14.60;8.30;;;;;;;15.56;78.29;99607.38;1648396;85;21104;-86
2021/05/19 09:17:32;;;;;;;15.23;8.15;;;;;;;15.83;78.42;99620.75;1648347;85;21118;-87
2021/05/19 09:20:12;;;;;;;16.42;8.23;;;;;;;15.65;77.04;99640.77;1650550;85;21120;-88
2021/05/19 09:22:42;;;;;;;13.58;7.90;;;;;;;15.56;77.37;99630.00;1648518;85;21031;-87
2021/05/19 09:25:26;;;;;;;13.48;7.62;;;;;;;15.61;76.75;99632.86;1649036;85;21185;-87
2021/05/19 09:27:56;;;;;;;11.12;7.17;;;;;;;15.69;76.34;99635.84;1651873;85;21000;-86
2021/05/19 09:30:45;;;;;;;13.43;8.33;;;;;;;15.43;75.92;99638.26;1651780;85;21056;-87
2021/05/19 09:33:23;;;;;;;12.65;7.28;;;;;;;15.54;75.76;99628.06;1601840;86;21751;-87
2021/05/19 09:36:22;;;;;;;13.78;8.63;;;;;;;15.44;74.80;99625.27;1648936;84;21029;-89
2021/05/19 09:38:53;;;;;;;14.47;8.65;;;;;;;15.60;75.98;99625.41;1627686;86;21708;-86
2021/05/19 09:41:26;;;;;;;12.75;8.80;;;;;;;15.66;76.19;99626.45;1662041;84;21088;-89
2021/05/19 09:43:56;;;;;;;19.82;8.55;;;;;;;15.48;76.87;99623.54;1658886;84;21033;-88
2021/05/19 09:46:26;;;;;;;14.87;8.80;;;;;;;15.72;76.49;99630.13;1658975;84;21689;-90
2021/05/19 09:49:16;;;;;;;19.87;9.18;;;;;;;15.75;76.74;99625.23;1663377;84;21062;-88
2021/05/19 09:51:50;;;;;;;15.23;8.35;;;;;;;15.87;75.66;99624.12;1662066;84;21173;-87
2021/05/19 09:54:38;;;;;;;16.87;9.40;;;;;;;15.91;74.93;99617.88;1662145;84;21112;-86
2021/05/19 09:57:15;;;;;;;17.85;9.05;;;;;;;15.85;75.31;99619.53;1659206;84;21200;-87
2021/05/19 09:59:42;;;;;;;14.98;9.33;;;;;;;15.95;74.88;99621.78;1662114;84;21689;-90
2021/05/19 10:02:12;;;;;;;13.50;7.55;;;;;;;15.88;74.86;99635.59;1658738;85;21131;-86
2021/05/19 10:04:45;;;;;;;13.68;7.10;;;;;;;15.73;72.36;99629.92;1661211;85;21018;-86
2021/05/19 10:07:17;;;;;;;13.25;7.78;;;;;;;15.88;72.23;99631.59;1661537;84;20985;-86
2021/05/19 10:09:41;;;;;;;15.40;7.87;;;;;;;15.84;73.07;99635.70;1657684;84;20985;-89
2021/05/19 10:12:08;;;;;;;13.28;7.55;;;;;;;16.10;72.69;99641.05;1632141;86;21036;-90
2021/05/19 10:14:37;;;;;;;12.68;7.55;;;;;;;16.10;72.93;99634.39;1660028;84;21694;-92
2021/05/19 10:17:12;;;;;;;13.70;7.15;;;;;;;15.95;72.95;99629.77;1662415;84;21092;-88
2021/05/19 10:19:52;;;;;;;9.70;6.72;;;;;;;16.02;71.33;99634.59;1660053;84;21773;-86
2021/05/19 10:22:23;;;;;;;15.25;7.37;;;;;;;16.06;71.53;99641.66;1659928;84;21721;-86
2021/05/19 10:25:18;;;;;;;10.98;6.00;;;;;;;16.30;71.09;99635.71;1660400;84;21696;-90
2021/05/19 10:27:52;;;;;;;12.37;6.75;;;;;;;16.12;71.05;99641.65;1658973;84;21036;-83
2021/05/19 10:30:51;;;;;;;9.23;5.80;;;;;;;16.29;71.74;99634.59;1659593;84;21693;-86
2021/05/19 10:33:43;;;;;;;14.18;7.05;;;;;;;16.46;70.72;99638.45;1663474;84;21084;-87
2021/05/19 10:36:29;;;;;;;9.20;5.17;;;;;;;16.20;70.12;99636.63;1658636;84;21142;-88
2021/05/19 10:39:18;;;;;;;9.53;4.95;;;;;;;16.27;68.47;99641.45;1664091;84;21070;-84
2021/05/19 10:41:49;;;;;;;8.80;4.97;;;;;;;16.18;68.34;99629.89;1652389;84;21099;-86
2021/05/19 10:44:19;;;;;;;7.53;4.80;;;;;;;16.36;67.67;99644.73;1642737;86;21107;-88
2021/05/19 10:47:10;;;;;;;9.43;5.05;;;;;;;16.32;68.27;99646.97;1642307;86;21113;-87
2021/05/19 10:58:54;;;;;;;13.25;5.15;;;;;;;16.39;69.04;99648.32;1644957;86;21072;-86
2021/05/19 11:01:51;;;;;;;7.15;3.90;;;;;;;16.29;67.84;99659.90;1640841;85;21075;-87
2021/05/19 11:04:26;;;;;;;7.50;3.50;;;;;;;16.15;65.44;99643.91;1642327;84;21031;-85
2021/05/19 11:07:10;;;;;;;7.80;3.50;;;;;;;16.31;64.54;99657.84;1644975;86;21129;-87
2021/05/19 11:09:40;;;;;;;10.50;4.03;;;;;;;16.43;65.78;99656.19;1649930;85;21600;-85
2021/05/19 11:12:25;;;;;;;7.85;3.42;;;;;;;16.59;64.72;99642.13;1644098;85;21656;-85
2021/05/19 11:15:01;;;;;;;7.30;4.10;;;;;;;16.59;64.24;99655.45;1646170;86;21073;-85
2021/05/19 11:17:34;;;;;;;6.05;3.45;;;;;;;16.41;64.85;99658.25;1647658;85;21647;-85
2021/05/19 11:19:54;;;;;;;9.98;3.58;;;;;;;16.50;63.51;99646.35;1645859;86;21017;-85
2021/05/19 11:22:24;;;;;;;6.87;3.62;;;;;;;16.64;64.02;99638.31;1644282;86;21047;-87
2021/05/19 11:24:54;;;;;;;7.83;3.55;;;;;;;16.69;62.57;99643.86;1644211;85;21115;-85
2021/05/19 11:27:28;;;;;;;4.35;2.70;;;;;;;16.70;63.67;99644.14;1618699;86;21578;-87
2021/05/19 11:29:55;;;;;;;5.92;3.40;;;;;;;16.86;61.39;99650.40;1639654;85;21081;-85
2021/05/19 11:32:24;;;;;;;5.25;3.08;;;;;;;16.85;61.13;99640.72;1644882;86;21641;-86
2021/05/19 11:34:51;;;;;;;5.78;3.10;;;;;;;16.98;61.42;99648.41;1647996;85;21154;-85
2021/05/19 11:37:18;;;;;;;4.83;2.95;;;;;;;17.04;61.11;99658.23;1631039;86;21059;-86
2021/05/19 11:39:50;;;;;;;6.10;3.12;;;;;;;16.90;60.62;99643.31;1647733;85;22179;-88
2021/05/19 11:42:22;;;;;;;7.12;3.35;;;;;;;17.12;60.35;99631.84;1625177;86;21722;-87
2021/05/19 11:45:02;;;;;;;4.22;3.12;;;;;;;16.95;61.55;99637.66;1649196;85;21204;-86
2021/05/19 11:47:36;;;;;;;4.78;2.85;;;;;;;17.21;59.17;99641.23;1650942;85;21400;-86
2021/05/19 11:50:28;;;;;;;5.17;3.10;;;;;;;17.13;58.09;99642.30;1654507;84;21789;-84
2021/05/19 11:53:04;;;;;;;6.70;3.10;;;;;;;16.89;57.63;99640.33;1652221;85;21177;-87
2021/05/19 11:55:50;;;;;;;5.33;3.25;;;;;;;17.09;56.49;99638.44;1650970;85;21096;-86
2021/05/19 11:58:29;;;;;;;5.05;2.75;;;;;;;17.12;55.85;99627.34;1616024;85;21241;-87
2021/05/19 12:01:07;;;;;;;5.95;3.10;;;;;;;17.35;56.49;99628.66;1646975;85;21052;-87